sensor_id;sensor_type;location;lat;lon;timestamp;temperature;humidity
35491;DHT22;21605;52.068;20.806;2022-12-16T00:01:19;-5.00;99.90
35491;DHT22;21605;52.068;20.806;2022-12-16T00:03:54;-5.00;99.90
35491;DHT22;21605;52.068;20.806;2022-12-16T00:06:21;-5.00;99.90
35491;DHT22;21605;52.068;20.806;2022-12-16T00:08:47;-4.90;99.90
35491;DHT22;21605;52.068;20.806;2022-12-16T00:11:13;-4.90;99.90
35491;DHT22;21605;52.068;20.806;2022-12-16T00:13:47;-4.90;99.90
35491;DHT22;21605;52.068;20.806;2022-12-16T00:16:15;-4.80;99.90
35491;DHT22;21605;52.068;20.806;2022-12-16T00:18:41;-4.80;99.90
35491;DHT22;21605;52.068;20.806;2022-12-16T00:21:07;-4.80;99.90
35491;DHT22;21605;52.068;20.806;2022-12-16T00:23:33;-4.70;99.90
35491;DHT22;21605;52.068;20.806;2022-12-16T00:26:00;-4.70;99.90
35491;DHT22;21605;52.068;20.806;2022-12-16T00:28:26;-4.70;99.90
35491;DHT22;21605;52.068;20.806;2022-12-16T00:30:53;-4.70;99.90
35491;DHT22;21605;52.068;20.806;2022-12-16T00:33:20;-4.70;99.90
35491;DHT22;21605;52.068;20.806;2022-12-16T00:35:46;-4.60;99.90
35491;DHT22;21605;52.068;20.806;2022-12-16T00:38:13;-4.60;99.90
35491;DHT22;21605;52.068;20.806;2022-12-16T00:40:48;-4.60;99.90
35491;DHT22;21605;52.068;20.806;2022-12-16T00:43:14;-4.60;99.90
35491;DHT22;21605;52.068;20.806;2022-12-16T00:45:49;-4.60;99.90
35491;DHT22;21605;52.068;20.806;2022-12-16T00:48:15;-4.50;99.90
35491;DHT22;21605;52.068;20.806;2022-12-16T00:50:49;-4.50;99.90
35491;DHT22;21605;52.068;20.806;2022-12-16T00:53:15;-4.60;99.90
35491;DHT22;21605;52.068;20.806;2022-12-16T00:55:41;-4.50;99.90
35491;DHT22;21605;52.068;20.806;2022-12-16T00:58:06;-4.50;99.90
35491;DHT22;21605;52.068;20.806;2022-12-16T01:00:32;-4.50;99.90
35491;DHT22;21605;52.068;20.806;2022-12-16T01:02:58;-4.50;99.90
35491;DHT22;21605;52.068;20.806;2022-12-16T01:05:24;-4.50;99.90
35491;DHT22;21605;52.068;20.806;2022-12-16T01:07:53;-4.50;99.90
35491;DHT22;21605;52.068;20.806;2022-12-16T01:10:19;-4.50;99.90
35491;DHT22;21605;52.068;20.806;2022-12-16T01:12:54;-4.50;99.90
35491;DHT22;21605;52.068;20.806;2022-12-16T01:15:20;-4.50;99.90
35491;DHT22;21605;52.068;20.806;2022-12-16T01:17:50;-4.40;99.90
35491;DHT22;21605;52.068;20.806;2022-12-16T01:20:16;-4.50;99.90
35491;DHT22;21605;52.068;20.806;2022-12-16T01:22:51;-4.40;99.90
35491;DHT22;21605;52.068;20.806;2022-12-16T01:25:16;-4.40;99.90
35491;DHT22;21605;52.068;20.806;2022-12-16T01:27:51;-4.40;99.90
35491;DHT22;21605;52.068;20.806;2022-12-16T01:30:17;-4.40;99.90
35491;DHT22;21605;52.068;20.806;2022-12-16T01:32:52;-4.40;99.90
35491;DHT22;21605;52.068;20.806;2022-12-16T01:35:17;-4.30;99.90
35491;DHT22;21605;52.068;20.806;2022-12-16T01:37:52;-4.30;99.90
35491;DHT22;21605;52.068;20.806;2022-12-16T01:40:20;-4.30;99.90
35491;DHT22;21605;52.068;20.806;2022-12-16T01:42:46;-4.30;99.90
35491;DHT22;21605;52.068;20.806;2022-12-16T01:45:31;-4.30;99.90
35491;DHT22;21605;52.068;20.806;2022-12-16T01:48:18;-4.30;99.90
35491;DHT22;21605;52.068;20.806;2022-12-16T01:51:00;-4.30;99.90
35491;DHT22;21605;52.068;20.806;2022-12-16T01:53:27;-4.30;99.90
35491;DHT22;21605;52.068;20.806;2022-12-16T01:55:55;-4.20;99.90
35491;DHT22;21605;52.068;20.806;2022-12-16T01:58:24;-4.20;99.90
35491;DHT22;21605;52.068;20.806;2022-12-16T02:00:52;-4.20;99.90
35491;DHT22;21605;52.068;20.806;2022-12-16T02:03:18;-4.20;99.90
35491;DHT22;21605;52.068;20.806;2022-12-16T02:05:45;-4.20;99.90
35491;DHT22;21605;52.068;20.806;2022-12-16T02:08:14;-4.20;99.90
35491;DHT22;21605;52.068;20.806;2022-12-16T02:16:10;-4.10;99.90
35491;DHT22;21605;52.068;20.806;2022-12-16T02:21:44;-4.00;99.90
35491;DHT22;21605;52.068;20.806;2022-12-16T02:35:45;-3.90;99.90
35491;DHT22;21605;52.068;20.806;2022-12-16T02:38:29;-3.90;99.90
35491;DHT22;21605;52.068;20.806;2022-12-16T02:41:00;-3.80;99.90
35491;DHT22;21605;52.068;20.806;2022-12-16T02:46:16;-3.80;99.90
35491;DHT22;21605;52.068;20.806;2022-12-16T02:48:43;-3.80;99.90
35491;DHT22;21605;52.068;20.806;2022-12-16T02:51:09;-3.80;99.90
35491;DHT22;21605;52.068;20.806;2022-12-16T02:53:37;-3.70;99.90
35491;DHT22;21605;52.068;20.806;2022-12-16T02:56:38;-3.70;99.90
35491;DHT22;21605;52.068;20.806;2022-12-16T03:04:44;-3.70;99.90
35491;DHT22;21605;52.068;20.806;2022-12-16T03:07:26;-3.60;99.90
35491;DHT22;21605;52.068;20.806;2022-12-16T03:09:56;-3.70;99.90
35491;DHT22;21605;52.068;20.806;2022-12-16T03:12:23;-3.70;99.90
35491;DHT22;21605;52.068;20.806;2022-12-16T03:14:59;-3.60;99.90
35491;DHT22;21605;52.068;20.806;2022-12-16T03:17:26;-3.60;99.90
35491;DHT22;21605;52.068;20.806;2022-12-16T03:20:02;-3.50;99.90
35491;DHT22;21605;52.068;20.806;2022-12-16T03:22:32;-3.50;99.90
35491;DHT22;21605;52.068;20.806;2022-12-16T03:24:58;-3.60;99.90
35491;DHT22;21605;52.068;20.806;2022-12-16T03:27:30;-3.60;99.90
35491;DHT22;21605;52.068;20.806;2022-12-16T03:30:17;-3.50;99.90
35491;DHT22;21605;52.068;20.806;2022-12-16T03:33:03;-3.50;99.90
35491;DHT22;21605;52.068;20.806;2022-12-16T03:35:43;-3.50;99.90
35491;DHT22;21605;52.068;20.806;2022-12-16T03:38:10;-3.50;99.90
35491;DHT22;21605;52.068;20.806;2022-12-16T03:40:38;-3.50;99.90
35491;DHT22;21605;52.068;20.806;2022-12-16T03:43:06;-3.50;99.90
35491;DHT22;21605;52.068;20.806;2022-12-16T03:45:37;-3.50;99.90
35491;DHT22;21605;52.068;20.806;2022-12-16T03:48:05;-3.50;99.90
35491;DHT22;21605;52.068;20.806;2022-12-16T03:50:33;-3.50;99.90
35491;DHT22;21605;52.068;20.806;2022-12-16T03:52:59;-4.00;99.90
35491;DHT22;21605;52.068;20.806;2022-12-16T03:55:25;-3.40;99.90
35491;DHT22;21605;52.068;20.806;2022-12-16T03:57:51;-3.40;99.90
35491;DHT22;21605;52.068;20.806;2022-12-16T04:00:17;-3.40;99.90
35491;DHT22;21605;52.068;20.806;2022-12-16T04:02:43;-3.40;99.90
35491;DHT22;21605;52.068;20.806;2022-12-16T04:05:09;-3.40;99.90
35491;DHT22;21605;52.068;20.806;2022-12-16T04:07:35;-3.40;99.90
35491;DHT22;21605;52.068;20.806;2022-12-16T04:10:01;-3.40;99.90
35491;DHT22;21605;52.068;20.806;2022-12-16T04:12:26;-3.40;99.90
35491;DHT22;21605;52.068;20.806;2022-12-16T04:15:10;-3.40;99.90
35491;DHT22;21605;52.068;20.806;2022-12-16T04:17:55;-3.40;99.90
35491;DHT22;21605;52.068;20.806;2022-12-16T04:20:42;-3.40;99.90
35491;DHT22;21605;52.068;20.806;2022-12-16T04:23:28;-3.30;99.90
35491;DHT22;21605;52.068;20.806;2022-12-16T04:26:14;-3.40;99.90
35491;DHT22;21605;52.068;20.806;2022-12-16T04:28:40;-3.30;99.90
35491;DHT22;21605;52.068;20.806;2022-12-16T04:31:06;-3.30;99.90
35491;DHT22;21605;52.068;20.806;2022-12-16T04:33:31;-3.30;99.90
35491;DHT22;21605;52.068;20.806;2022-12-16T04:36:16;-3.30;99.90
35491;DHT22;21605;52.068;20.806;2022-12-16T04:39:05;-3.30;99.90
35491;DHT22;21605;52.068;20.806;2022-12-16T04:41:55;-3.30;99.90
35491;DHT22;21605;52.068;20.806;2022-12-16T04:44:39;-3.30;99.90
35491;DHT22;21605;52.068;20.806;2022-12-16T04:47:24;-3.30;99.90
35491;DHT22;21605;52.068;20.806;2022-12-16T04:50:08;-3.20;99.90
35491;DHT22;21605;52.068;20.806;2022-12-16T04:53:01;-3.20;99.90
35491;DHT22;21605;52.068;20.806;2022-12-16T04:55:45;-3.20;99.90
35491;DHT22;21605;52.068;20.806;2022-12-16T04:58:29;-3.20;99.90
35491;DHT22;21605;52.068;20.806;2022-12-16T05:01:13;-3.20;99.90
35491;DHT22;21605;52.068;20.806;2022-12-16T05:04:03;-3.20;99.90
35491;DHT22;21605;52.068;20.806;2022-12-16T05:06:47;-3.10;99.90
35491;DHT22;21605;52.068;20.806;2022-12-16T05:09:31;-3.10;99.90
35491;DHT22;21605;52.068;20.806;2022-12-16T05:12:15;-3.10;99.90
35491;DHT22;21605;52.068;20.806;2022-12-16T05:15:03;-3.10;99.90
35491;DHT22;21605;52.068;20.806;2022-12-16T05:17:46;-3.10;99.90
35491;DHT22;21605;52.068;20.806;2022-12-16T05:20:31;-3.10;99.90
35491;DHT22;21605;52.068;20.806;2022-12-16T05:23:15;-3.10;99.90
35491;DHT22;21605;52.068;20.806;2022-12-16T05:26:02;-3.10;99.90
35491;DHT22;21605;52.068;20.806;2022-12-16T05:28:46;-3.10;99.90
35491;DHT22;21605;52.068;20.806;2022-12-16T05:31:30;-3.10;99.90
35491;DHT22;21605;52.068;20.806;2022-12-16T05:34:14;-3.10;99.90
35491;DHT22;21605;52.068;20.806;2022-12-16T05:37:01;-3.10;99.90
35491;DHT22;21605;52.068;20.806;2022-12-16T05:39:45;-3.10;99.90
35491;DHT22;21605;52.068;20.806;2022-12-16T05:42:29;-3.10;99.90
35491;DHT22;21605;52.068;20.806;2022-12-16T05:45:13;-3.10;99.90
35491;DHT22;21605;52.068;20.806;2022-12-16T05:48:01;-3.10;99.90
35491;DHT22;21605;52.068;20.806;2022-12-16T05:50:45;-3.00;99.90
35491;DHT22;21605;52.068;20.806;2022-12-16T05:53:29;-3.00;99.90
35491;DHT22;21605;52.068;20.806;2022-12-16T05:56:13;-3.00;99.90
35491;DHT22;21605;52.068;20.806;2022-12-16T05:59:03;-3.00;99.90
35491;DHT22;21605;52.068;20.806;2022-12-16T06:01:47;-3.00;99.90
35491;DHT22;21605;52.068;20.806;2022-12-16T06:04:31;-3.00;99.90
35491;DHT22;21605;52.068;20.806;2022-12-16T06:07:15;-2.90;99.90
35491;DHT22;21605;52.068;20.806;2022-12-16T06:09:59;-2.90;99.90
35491;DHT22;21605;52.068;20.806;2022-12-16T06:12:46;-2.90;99.90
35491;DHT22;21605;52.068;20.806;2022-12-16T06:15:30;-2.90;99.90
35491;DHT22;21605;52.068;20.806;2022-12-16T06:18:14;-2.80;99.90
35491;DHT22;21605;52.068;20.806;2022-12-16T06:21:07;-2.80;99.90
35491;DHT22;21605;52.068;20.806;2022-12-16T06:23:51;-2.80;99.90
35491;DHT22;21605;52.068;20.806;2022-12-16T06:26:36;-2.80;99.90
35491;DHT22;21605;52.068;20.806;2022-12-16T06:29:19;-2.80;99.90
35491;DHT22;21605;52.068;20.806;2022-12-16T06:32:03;-2.80;99.90
35491;DHT22;21605;52.068;20.806;2022-12-16T06:34:47;-2.80;99.90
35491;DHT22;21605;52.068;20.806;2022-12-16T06:37:31;-2.80;99.90
35491;DHT22;21605;52.068;20.806;2022-12-16T06:40:15;-2.80;99.90
35491;DHT22;21605;52.068;20.806;2022-12-16T06:42:59;-2.80;99.90
35491;DHT22;21605;52.068;20.806;2022-12-16T06:45:43;-2.70;99.90
35491;DHT22;21605;52.068;20.806;2022-12-16T06:48:27;-2.70;99.90
35491;DHT22;21605;52.068;20.806;2022-12-16T06:51:11;-2.70;99.90
35491;DHT22;21605;52.068;20.806;2022-12-16T06:53:55;-2.70;99.90
35491;DHT22;21605;52.068;20.806;2022-12-16T06:56:39;-2.70;99.90
35491;DHT22;21605;52.068;20.806;2022-12-16T06:59:23;-2.70;99.90
35491;DHT22;21605;52.068;20.806;2022-12-16T07:02:09;-2.60;99.90
35491;DHT22;21605;52.068;20.806;2022-12-16T07:04:53;-2.60;99.90
35491;DHT22;21605;52.068;20.806;2022-12-16T07:07:37;-2.60;99.90
35491;DHT22;21605;52.068;20.806;2022-12-16T07:10:22;-2.60;99.90
35491;DHT22;21605;52.068;20.806;2022-12-16T07:13:05;-2.60;99.90
35491;DHT22;21605;52.068;20.806;2022-12-16T07:15:50;-2.50;99.90
35491;DHT22;21605;52.068;20.806;2022-12-16T07:18:33;-2.50;99.90
35491;DHT22;21605;52.068;20.806;2022-12-16T07:21:18;-2.50;99.90
35491;DHT22;21605;52.068;20.806;2022-12-16T07:24:02;-2.50;99.90
35491;DHT22;21605;52.068;20.806;2022-12-16T07:26:46;-2.50;99.90
35491;DHT22;21605;52.068;20.806;2022-12-16T07:29:30;-2.40;99.90
35491;DHT22;21605;52.068;20.806;2022-12-16T07:32:14;-2.40;99.90
35491;DHT22;21605;52.068;20.806;2022-12-16T07:35:07;-2.40;99.90
35491;DHT22;21605;52.068;20.806;2022-12-16T07:37:51;-2.40;99.90
35491;DHT22;21605;52.068;20.806;2022-12-16T07:40:35;-2.40;99.90
35491;DHT22;21605;52.068;20.806;2022-12-16T07:43:19;-2.40;99.90
35491;DHT22;21605;52.068;20.806;2022-12-16T07:46:13;-2.40;99.90
35491;DHT22;21605;52.068;20.806;2022-12-16T07:48:57;-2.40;99.90
35491;DHT22;21605;52.068;20.806;2022-12-16T07:51:41;-2.30;99.90
35491;DHT22;21605;52.068;20.806;2022-12-16T07:54:32;-2.30;99.90
35491;DHT22;21605;52.068;20.806;2022-12-16T07:57:16;-2.30;99.90
35491;DHT22;21605;52.068;20.806;2022-12-16T08:00:07;-2.30;99.90
35491;DHT22;21605;52.068;20.806;2022-12-16T08:02:54;-2.30;99.90
35491;DHT22;21605;52.068;20.806;2022-12-16T08:05:39;-2.30;99.90
35491;DHT22;21605;52.068;20.806;2022-12-16T08:08:23;-2.30;99.90
35491;DHT22;21605;52.068;20.806;2022-12-16T08:11:10;-2.40;99.90
35491;DHT22;21605;52.068;20.806;2022-12-16T08:13:54;-2.30;99.90
35491;DHT22;21605;52.068;20.806;2022-12-16T08:16:38;-2.30;99.90
35491;DHT22;21605;52.068;20.806;2022-12-16T08:19:22;-2.30;99.90
35491;DHT22;21605;52.068;20.806;2022-12-16T08:22:06;-2.30;99.90
35491;DHT22;21605;52.068;20.806;2022-12-16T08:24:51;-2.30;99.90
35491;DHT22;21605;52.068;20.806;2022-12-16T08:27:35;-2.30;99.90
35491;DHT22;21605;52.068;20.806;2022-12-16T08:30:19;-2.30;99.90
35491;DHT22;21605;52.068;20.806;2022-12-16T08:33:13;-2.30;99.90
35491;DHT22;21605;52.068;20.806;2022-12-16T08:35:58;-2.30;99.90
35491;DHT22;21605;52.068;20.806;2022-12-16T08:38:42;-2.20;99.90
35491;DHT22;21605;52.068;20.806;2022-12-16T08:41:26;-2.20;99.90
35491;DHT22;21605;52.068;20.806;2022-12-16T08:44:09;-2.20;99.90
35491;DHT22;21605;52.068;20.806;2022-12-16T08:46:54;-2.20;99.90
35491;DHT22;21605;52.068;20.806;2022-12-16T08:49:38;-2.20;99.90
35491;DHT22;21605;52.068;20.806;2022-12-16T08:52:22;-2.20;99.90
35491;DHT22;21605;52.068;20.806;2022-12-16T08:55:15;-2.20;99.90
35491;DHT22;21605;52.068;20.806;2022-12-16T08:57:59;-2.10;99.90
35491;DHT22;21605;52.068;20.806;2022-12-16T09:00:43;-2.10;99.90
35491;DHT22;21605;52.068;20.806;2022-12-16T09:03:28;-2.10;99.90
35491;DHT22;21605;52.068;20.806;2022-12-16T09:06:12;-1.60;99.90
35491;DHT22;21605;52.068;20.806;2022-12-16T09:08:56;-2.00;99.90
35491;DHT22;21605;52.068;20.806;2022-12-16T09:11:40;-2.00;99.90
35491;DHT22;21605;52.068;20.806;2022-12-16T09:14:24;-2.00;99.90
35491;DHT22;21605;52.068;20.806;2022-12-16T09:17:11;-2.00;99.90
35491;DHT22;21605;52.068;20.806;2022-12-16T09:19:55;-2.00;99.90
35491;DHT22;21605;52.068;20.806;2022-12-16T09:22:39;-2.00;99.90
35491;DHT22;21605;52.068;20.806;2022-12-16T09:25:23;-2.00;99.90
35491;DHT22;21605;52.068;20.806;2022-12-16T09:28:10;-2.00;99.90
35491;DHT22;21605;52.068;20.806;2022-12-16T09:30:54;-2.00;99.90
35491;DHT22;21605;52.068;20.806;2022-12-16T09:33:38;-2.00;99.90
35491;DHT22;21605;52.068;20.806;2022-12-16T09:36:22;-2.00;99.90
35491;DHT22;21605;52.068;20.806;2022-12-16T09:39:06;-2.00;99.90
35491;DHT22;21605;52.068;20.806;2022-12-16T09:45:19;-1.90;99.90
35491;DHT22;21605;52.068;20.806;2022-12-16T09:48:55;-1.90;99.90
35491;DHT22;21605;52.068;20.806;2022-12-16T09:51:29;-1.90;99.90
35491;DHT22;21605;52.068;20.806;2022-12-16T09:54:16;-1.90;99.90
35491;DHT22;21605;52.068;20.806;2022-12-16T09:57:02;-1.90;99.90
35491;DHT22;21605;52.068;20.806;2022-12-16T10:00:28;-1.80;99.90
35491;DHT22;21605;52.068;20.806;2022-12-16T10:03:20;-1.80;99.90
35491;DHT22;21605;52.068;20.806;2022-12-16T10:06:51;-1.70;99.90
35491;DHT22;21605;52.068;20.806;2022-12-16T10:15:56;-1.60;99.90
35491;DHT22;21605;52.068;20.806;2022-12-16T10:27:47;-1.50;99.90
35491;DHT22;21605;52.068;20.806;2022-12-16T10:30:35;-1.50;99.90
35491;DHT22;21605;52.068;20.806;2022-12-16T10:33:21;-1.60;99.90
35491;DHT22;21605;52.068;20.806;2022-12-16T10:36:19;-1.40;99.90
35491;DHT22;21605;52.068;20.806;2022-12-16T10:39:30;-1.40;99.90
35491;DHT22;21605;52.068;20.806;2022-12-16T10:42:25;-1.40;99.90
35491;DHT22;21605;52.068;20.806;2022-12-16T10:45:34;-1.30;99.90
35491;DHT22;21605;52.068;20.806;2022-12-16T10:48:26;-1.30;99.90
35491;DHT22;21605;52.068;20.806;2022-12-16T10:51:17;-1.30;99.90
35491;DHT22;21605;52.068;20.806;2022-12-16T11:00:47;-1.20;99.90
35491;DHT22;21605;52.068;20.806;2022-12-16T11:03:34;-1.20;99.90
35491;DHT22;21605;52.068;20.806;2022-12-16T11:06:26;-1.10;99.90
35491;DHT22;21605;52.068;20.806;2022-12-16T11:12:26;-1.10;99.90
35491;DHT22;21605;52.068;20.806;2022-12-16T11:15:28;-1.00;99.90
35491;DHT22;21605;52.068;20.806;2022-12-16T11:18:20;-0.90;99.90
35491;DHT22;21605;52.068;20.806;2022-12-16T11:21:18;-0.90;99.90
35491;DHT22;21605;52.068;20.806;2022-12-16T11:24:19;-0.90;99.90
35491;DHT22;21605;52.068;20.806;2022-12-16T11:27:09;-0.80;99.90
35491;DHT22;21605;52.068;20.806;2022-12-16T11:30:18;-0.80;99.90
35491;DHT22;21605;52.068;20.806;2022-12-16T11:33:22;-0.80;99.90
35491;DHT22;21605;52.068;20.806;2022-12-16T11:36:21;-0.70;99.90
35491;DHT22;21605;52.068;20.806;2022-12-16T11:39:06;-0.70;99.90
35491;DHT22;21605;52.068;20.806;2022-12-16T11:41:58;-0.70;99.90
35491;DHT22;21605;52.068;20.806;2022-12-16T11:44:46;-0.60;99.90
35491;DHT22;21605;52.068;20.806;2022-12-16T11:50:37;-0.60;99.90
35491;DHT22;21605;52.068;20.806;2022-12-16T11:53:50;-0.60;99.90
35491;DHT22;21605;52.068;20.806;2022-12-16T11:56:42;-0.50;99.90
35491;DHT22;21605;52.068;20.806;2022-12-16T12:02:41;-0.40;99.90
35491;DHT22;21605;52.068;20.806;2022-12-16T12:11:27;-0.40;99.90
35491;DHT22;21605;52.068;20.806;2022-12-16T12:26:42;-0.30;99.90
35491;DHT22;21605;52.068;20.806;2022-12-16T12:38:15;-0.20;99.90
35491;DHT22;21605;52.068;20.806;2022-12-16T12:41:27;-0.20;99.90
35491;DHT22;21605;52.068;20.806;2022-12-16T12:44:35;-0.20;99.90
35491;DHT22;21605;52.068;20.806;2022-12-16T12:47:22;-0.20;99.90
35491;DHT22;21605;52.068;20.806;2022-12-16T12:50:11;-0.20;99.90
35491;DHT22;21605;52.068;20.806;2022-12-16T12:56:46;-0.20;99.90
35491;DHT22;21605;52.068;20.806;2022-12-16T13:00:04;-0.10;99.90
35491;DHT22;21605;52.068;20.806;2022-12-16T13:03:17;-0.10;99.90
35491;DHT22;21605;52.068;20.806;2022-12-16T13:06:06;-0.20;99.90
35491;DHT22;21605;52.068;20.806;2022-12-16T13:11:39;-0.20;99.90
35491;DHT22;21605;52.068;20.806;2022-12-16T13:20:47;-0.30;99.90
35491;DHT22;21605;52.068;20.806;2022-12-16T13:23:37;-0.30;99.90
35491;DHT22;21605;52.068;20.806;2022-12-16T13:26:28;-0.40;99.90
35491;DHT22;21605;52.068;20.806;2022-12-16T13:32:24;-0.40;99.90
35491;DHT22;21605;52.068;20.806;2022-12-16T13:38:03;-0.50;99.90
35491;DHT22;21605;52.068;20.806;2022-12-16T13:40:57;1.40;99.90
35491;DHT22;21605;52.068;20.806;2022-12-16T13:43:46;-0.50;99.90
35491;DHT22;21605;52.068;20.806;2022-12-16T13:46:51;-0.50;99.90
35491;DHT22;21605;52.068;20.806;2022-12-16T13:55:38;-0.60;99.90
35491;DHT22;21605;52.068;20.806;2022-12-16T14:04:39;-0.70;99.90
35491;DHT22;21605;52.068;20.806;2022-12-16T14:07:26;-0.70;99.90
35491;DHT22;21605;52.068;20.806;2022-12-16T14:13:56;-0.70;99.90
35491;DHT22;21605;52.068;20.806;2022-12-16T14:16:51;-0.80;99.90
35491;DHT22;21605;52.068;20.806;2022-12-16T14:25:44;-0.80;99.90
35491;DHT22;21605;52.068;20.806;2022-12-16T14:28:34;-0.80;99.90
35491;DHT22;21605;52.068;20.806;2022-12-16T14:34:32;-0.80;99.90
35491;DHT22;21605;52.068;20.806;2022-12-16T14:37:37;-0.80;99.90
35491;DHT22;21605;52.068;20.806;2022-12-16T14:40:29;-0.80;99.90
35491;DHT22;21605;52.068;20.806;2022-12-16T14:43:14;-0.90;99.90
35491;DHT22;21605;52.068;20.806;2022-12-16T14:45:59;-0.90;99.90
35491;DHT22;21605;52.068;20.806;2022-12-16T14:48:48;-0.90;99.90
35491;DHT22;21605;52.068;20.806;2022-12-16T14:51:52;-0.90;99.90
35491;DHT22;21605;52.068;20.806;2022-12-16T14:54:42;-0.90;99.90
35491;DHT22;21605;52.068;20.806;2022-12-16T14:57:31;-0.90;99.90
35491;DHT22;21605;52.068;20.806;2022-12-16T15:00:27;-0.90;99.90
35491;DHT22;21605;52.068;20.806;2022-12-16T15:03:36;-0.90;99.90
35491;DHT22;21605;52.068;20.806;2022-12-16T15:06:33;-0.90;99.90
35491;DHT22;21605;52.068;20.806;2022-12-16T15:09:31;-1.00;99.90
35491;DHT22;21605;52.068;20.806;2022-12-16T15:12:36;-1.00;99.90
35491;DHT22;21605;52.068;20.806;2022-12-16T15:15:37;-1.00;99.90
35491;DHT22;21605;52.068;20.806;2022-12-16T15:18:33;-1.00;99.90
35491;DHT22;21605;52.068;20.806;2022-12-16T15:21:22;-1.00;99.90
35491;DHT22;21605;52.068;20.806;2022-12-16T15:24:15;-1.10;99.90
35491;DHT22;21605;52.068;20.806;2022-12-16T15:29:56;-1.10;99.90
35491;DHT22;21605;52.068;20.806;2022-12-16T15:32:41;-1.10;99.90
35491;DHT22;21605;52.068;20.806;2022-12-16T15:35:31;-1.10;99.90
35491;DHT22;21605;52.068;20.806;2022-12-16T15:41:03;-1.10;99.90
35491;DHT22;21605;52.068;20.806;2022-12-16T15:43:48;-1.10;99.90
35491;DHT22;21605;52.068;20.806;2022-12-16T15:46:33;-1.20;99.90
35491;DHT22;21605;52.068;20.806;2022-12-16T15:49:31;-1.20;99.90
35491;DHT22;21605;52.068;20.806;2022-12-16T15:55:38;-1.20;99.90
35491;DHT22;21605;52.068;20.806;2022-12-16T15:58:34;-1.20;99.90
35491;DHT22;21605;52.068;20.806;2022-12-16T16:01:26;-1.30;99.90
35491;DHT22;21605;52.068;20.806;2022-12-16T16:04:32;-1.30;99.90
35491;DHT22;21605;52.068;20.806;2022-12-16T16:07:36;-1.30;99.90
35491;DHT22;21605;52.068;20.806;2022-12-16T16:10:36;-1.30;99.90
35491;DHT22;21605;52.068;20.806;2022-12-16T16:13:20;-1.30;99.90
35491;DHT22;21605;52.068;20.806;2022-12-16T16:16:04;-1.30;99.90
35491;DHT22;21605;52.068;20.806;2022-12-16T16:18:49;-1.30;99.90
35491;DHT22;21605;52.068;20.806;2022-12-16T16:21:34;-1.30;99.90
35491;DHT22;21605;52.068;20.806;2022-12-16T16:24:18;-1.30;99.90
35491;DHT22;21605;52.068;20.806;2022-12-16T16:27:04;-1.30;99.90
35491;DHT22;21605;52.068;20.806;2022-12-16T16:29:51;-1.40;99.90
35491;DHT22;21605;52.068;20.806;2022-12-16T16:32:35;-1.40;99.90
35491;DHT22;21605;52.068;20.806;2022-12-16T16:35:19;-1.40;99.90
35491;DHT22;21605;52.068;20.806;2022-12-16T16:38:03;-1.40;99.90
35491;DHT22;21605;52.068;20.806;2022-12-16T16:40:47;-1.40;99.90
35491;DHT22;21605;52.068;20.806;2022-12-16T16:43:37;-1.40;99.90
35491;DHT22;21605;52.068;20.806;2022-12-16T16:46:39;-1.40;99.90
35491;DHT22;21605;52.068;20.806;2022-12-16T16:49:41;-1.40;99.90
35491;DHT22;21605;52.068;20.806;2022-12-16T16:52:34;-1.40;99.90
35491;DHT22;21605;52.068;20.806;2022-12-16T16:55:19;-1.40;99.90
35491;DHT22;21605;52.068;20.806;2022-12-16T16:58:33;-1.40;99.90
35491;DHT22;21605;52.068;20.806;2022-12-16T17:01:18;-1.40;99.90
35491;DHT22;21605;52.068;20.806;2022-12-16T17:04:02;-1.50;99.90
35491;DHT22;21605;52.068;20.806;2022-12-16T17:06:47;-1.50;99.90
35491;DHT22;21605;52.068;20.806;2022-12-16T17:09:31;-1.50;99.90
35491;DHT22;21605;52.068;20.806;2022-12-16T17:12:23;-1.50;99.90
35491;DHT22;21605;52.068;20.806;2022-12-16T17:15:22;-1.50;99.90
35491;DHT22;21605;52.068;20.806;2022-12-16T17:18:09;-1.40;99.90
35491;DHT22;21605;52.068;20.806;2022-12-16T17:20:53;-1.50;99.90
35491;DHT22;21605;52.068;20.806;2022-12-16T17:23:38;-1.50;99.90
35491;DHT22;21605;52.068;20.806;2022-12-16T17:26:23;-1.50;99.90
35491;DHT22;21605;52.068;20.806;2022-12-16T17:29:16;-1.50;99.90
35491;DHT22;21605;52.068;20.806;2022-12-16T17:32:01;-1.50;99.90
35491;DHT22;21605;52.068;20.806;2022-12-16T17:34:45;-1.50;99.90
35491;DHT22;21605;52.068;20.806;2022-12-16T17:37:29;-1.50;99.90
35491;DHT22;21605;52.068;20.806;2022-12-16T17:40:13;-1.50;99.90
35491;DHT22;21605;52.068;20.806;2022-12-16T17:42:57;-1.50;99.90
35491;DHT22;21605;52.068;20.806;2022-12-16T17:45:41;-1.50;99.90
35491;DHT22;21605;52.068;20.806;2022-12-16T17:48:25;-1.50;99.90
35491;DHT22;21605;52.068;20.806;2022-12-16T17:51:09;-1.50;99.90
35491;DHT22;21605;52.068;20.806;2022-12-16T17:53:53;-1.50;99.90
35491;DHT22;21605;52.068;20.806;2022-12-16T17:56:37;-1.60;99.90
35491;DHT22;21605;52.068;20.806;2022-12-16T17:59:21;-1.60;99.90
35491;DHT22;21605;52.068;20.806;2022-12-16T18:02:05;-1.60;99.90
35491;DHT22;21605;52.068;20.806;2022-12-16T18:04:49;-0.60;99.90
35491;DHT22;21605;52.068;20.806;2022-12-16T18:07:33;-1.50;99.90
35491;DHT22;21605;52.068;20.806;2022-12-16T18:10:17;-1.50;99.90
35491;DHT22;21605;52.068;20.806;2022-12-16T18:13:01;-1.50;99.90
35491;DHT22;21605;52.068;20.806;2022-12-16T18:15:52;-1.50;99.90
35491;DHT22;21605;52.068;20.806;2022-12-16T18:18:36;-1.60;99.90
35491;DHT22;21605;52.068;20.806;2022-12-16T18:21:20;-1.60;99.90
35491;DHT22;21605;52.068;20.806;2022-12-16T18:24:06;-1.60;99.90
35491;DHT22;21605;52.068;20.806;2022-12-16T18:26:50;-1.60;99.90
35491;DHT22;21605;52.068;20.806;2022-12-16T18:29:34;-1.50;99.90
35491;DHT22;21605;52.068;20.806;2022-12-16T18:32:18;-1.50;99.90
35491;DHT22;21605;52.068;20.806;2022-12-16T18:35:03;-1.50;99.90
35491;DHT22;21605;52.068;20.806;2022-12-16T18:37:47;-1.50;99.90
35491;DHT22;21605;52.068;20.806;2022-12-16T18:40:31;-1.50;99.90
35491;DHT22;21605;52.068;20.806;2022-12-16T18:43:15;-1.50;99.90
35491;DHT22;21605;52.068;20.806;2022-12-16T18:45:59;-1.50;99.90
35491;DHT22;21605;52.068;20.806;2022-12-16T18:48:44;-1.50;99.90
35491;DHT22;21605;52.068;20.806;2022-12-16T18:51:28;-1.50;99.90
35491;DHT22;21605;52.068;20.806;2022-12-16T18:54:12;-1.50;99.90
35491;DHT22;21605;52.068;20.806;2022-12-16T18:56:56;-1.50;99.90
35491;DHT22;21605;52.068;20.806;2022-12-16T18:59:40;-1.50;99.90
35491;DHT22;21605;52.068;20.806;2022-12-16T19:02:24;-1.50;99.90
35491;DHT22;21605;52.068;20.806;2022-12-16T19:05:08;-1.50;99.90
35491;DHT22;21605;52.068;20.806;2022-12-16T19:07:52;-1.50;99.90
35491;DHT22;21605;52.068;20.806;2022-12-16T19:10:36;-1.50;99.90
35491;DHT22;21605;52.068;20.806;2022-12-16T19:13:20;-1.40;99.90
35491;DHT22;21605;52.068;20.806;2022-12-16T19:16:04;-1.50;99.90
35491;DHT22;21605;52.068;20.806;2022-12-16T19:18:48;-1.50;99.90
35491;DHT22;21605;52.068;20.806;2022-12-16T19:21:32;0.40;99.90